createdAt,value
2019-03-30T00:00:03.321Z,22.70
2019-03-30T00:02:54.420Z,23.57
2019-03-30T00:05:25.005Z,27.37
2019-03-30T00:07:55.719Z,22.32
2019-03-30T00:10:26.213Z,23.12
2019-03-30T00:12:56.820Z,31.75
2019-03-30T00:15:27.500Z,26.15
2019-03-30T00:17:58.152Z,23.62
2019-03-30T00:20:28.907Z,26.95
2019-03-30T00:22:59.601Z,22.73
2019-03-30T00:25:30.249Z,30.88
2019-03-30T00:28:00.941Z,28.17
2019-03-30T00:30:31.745Z,25.80
2019-03-30T00:33:02.361Z,33.05
2019-03-30T00:35:33.115Z,29.98
2019-03-30T00:38:03.779Z,32.03
2019-03-30T00:40:34.527Z,28.92
2019-03-30T00:43:05.144Z,29.48
2019-03-30T00:45:35.748Z,30.40
2019-03-30T00:48:08.023Z,30.72
2019-03-30T00:50:38.621Z,28.32
2019-03-30T00:53:09.246Z,27.07
2019-03-30T00:55:39.748Z,30.30
2019-03-30T00:58:10.353Z,28.83
2019-03-30T01:00:41.081Z,30.17
2019-03-30T01:03:11.816Z,29.18
2019-03-30T01:05:43.399Z,29.72
2019-03-30T01:08:13.888Z,31.20
2019-03-30T01:10:44.380Z,29.10
2019-03-30T01:13:14.938Z,32.03
2019-03-30T01:15:45.540Z,35.43
2019-03-30T01:18:16.228Z,28.70
2019-03-30T01:20:47.277Z,27.13
2019-03-30T01:23:18.004Z,30.40
2019-03-30T01:25:48.699Z,28.00
2019-03-30T01:28:19.424Z,27.80
2019-03-30T01:30:53.639Z,32.63
2019-03-30T01:33:24.315Z,31.93
2019-03-30T01:35:55.244Z,32.13
2019-03-30T01:38:25.799Z,33.88
2019-03-30T01:40:56.446Z,32.75
2019-03-30T01:43:27.221Z,32.30
2019-03-30T01:45:58.412Z,30.97
2019-03-30T01:48:29.120Z,29.15
2019-03-30T01:50:59.814Z,27.87
2019-03-30T01:53:30.431Z,35.30
2019-03-30T01:56:00.978Z,32.98
2019-03-30T01:58:31.584Z,29.12
2019-03-30T02:01:04.060Z,28.07
2019-03-30T02:03:34.701Z,28.35
2019-03-30T02:06:06.519Z,28.40
2019-03-30T02:08:37.129Z,28.23
2019-03-30T02:11:07.794Z,29.18
2019-03-30T02:13:38.545Z,25.77
2019-03-30T02:16:09.207Z,25.77
2019-03-30T02:18:58.740Z,25.32
2019-03-30T02:21:29.303Z,25.65
2019-03-30T02:24:01.066Z,27.17
2019-03-30T02:26:31.744Z,29.35
2019-03-30T02:29:02.650Z,25.05
2019-03-30T02:31:33.189Z,32.00
2019-03-30T02:34:04.079Z,29.80
2019-03-30T02:36:34.803Z,24.98
2019-03-30T02:39:06.621Z,30.97
2019-03-30T02:41:38.296Z,27.20
2019-03-30T02:44:08.908Z,28.20
2019-03-30T02:46:40.962Z,27.80
2019-03-30T02:49:11.591Z,26.95
2019-03-30T02:51:42.202Z,28.62
2019-03-30T02:54:13.422Z,25.80
2019-03-30T02:56:44.429Z,32.40
2019-03-30T02:59:15.151Z,28.98
2019-03-30T03:01:46.354Z,30.90
2019-03-30T03:04:19.945Z,27.10
2019-03-30T03:06:50.522Z,26.73
2019-03-30T03:09:21.081Z,28.83
2019-03-30T03:11:51.765Z,29.05
2019-03-30T03:14:22.372Z,33.65
2019-03-30T03:16:52.897Z,31.23
2019-03-30T03:19:23.360Z,31.33
2019-03-30T03:21:53.938Z,29.98
2019-03-30T03:24:26.038Z,26.60
2019-03-30T03:26:56.590Z,34.20
2019-03-30T03:29:27.172Z,27.75
2019-03-30T03:31:57.658Z,27.37
2019-03-30T03:34:28.186Z,30.65
2019-03-30T03:36:58.722Z,28.80
2019-03-30T03:39:29.276Z,27.02
2019-03-30T03:42:00.582Z,27.82
2019-03-30T03:44:31.189Z,25.02
2019-03-30T03:47:01.829Z,27.25
2019-03-30T03:49:32.384Z,31.23
2019-03-30T03:52:03.071Z,27.55
2019-03-30T03:54:34.190Z,32.58
2019-03-30T03:57:06.364Z,28.87
2019-03-30T03:59:37.502Z,28.50
2019-03-30T04:02:10.826Z,25.45
2019-03-30T04:04:47.116Z,29.98
2019-03-30T04:07:17.571Z,34.35
2019-03-30T04:09:50.770Z,26.75
2019-03-30T04:12:23.922Z,31.75
2019-03-30T04:14:54.567Z,27.70
2019-03-30T04:17:25.169Z,33.60
2019-03-30T04:19:55.874Z,28.35
2019-03-30T04:22:26.478Z,32.03
2019-03-30T04:24:57.286Z,29.80
2019-03-30T04:27:28.067Z,26.80
2019-03-30T04:29:58.627Z,29.37
2019-03-30T04:32:29.156Z,31.82
2019-03-30T04:34:59.678Z,29.40
2019-03-30T04:37:30.264Z,34.73
2019-03-30T04:40:00.772Z,29.55
2019-03-30T04:42:31.314Z,34.15
2019-03-30T04:45:01.911Z,38.63
2019-03-30T04:47:32.830Z,48.17
2019-03-30T04:50:03.467Z,28.83
2019-03-30T04:52:34.033Z,26.12
2019-03-30T04:55:04.798Z,26.65
2019-03-30T04:57:35.569Z,28.73
2019-03-30T05:00:06.918Z,35.20
2019-03-30T05:02:38.861Z,26.55
2019-03-30T05:05:11.013Z,31.10
2019-03-30T05:07:41.689Z,25.62
2019-03-30T05:10:12.836Z,27.93
2019-03-30T05:12:45.113Z,22.32
2019-03-30T05:15:15.844Z,27.45
2019-03-30T05:17:48.085Z,26.37
2019-03-30T05:20:18.939Z,30.82
2019-03-30T05:22:51.338Z,26.37
2019-03-30T05:25:22.362Z,26.95
2019-03-30T05:27:55.044Z,25.52
2019-03-30T05:30:25.990Z,26.97
2019-03-30T05:33:05.483Z,23.00
2019-03-30T05:35:28.907Z,29.87
2019-03-30T05:38:01.450Z,25.20
2019-03-30T05:40:31.860Z,24.43
2019-03-30T05:43:02.571Z,26.90
2019-03-30T05:45:33.323Z,27.67
2019-03-30T05:48:04.235Z,26.20
2019-03-30T05:50:36.128Z,23.52
2019-03-30T05:53:06.745Z,25.43
2019-03-30T05:55:37.576Z,24.50
2019-03-30T05:58:08.167Z,25.57
2019-03-30T06:00:39.972Z,28.12
2019-03-30T06:03:10.564Z,25.08
2019-03-30T06:05:41.153Z,39.55
2019-03-30T06:08:11.643Z,30.85
2019-03-30T06:10:42.232Z,34.85
2019-03-30T06:13:13.085Z,26.02
2019-03-30T06:15:43.660Z,22.50
2019-03-30T06:18:14.404Z,24.43
2019-03-30T06:20:44.978Z,24.82
2019-03-30T06:23:16.719Z,28.10
2019-03-30T06:25:47.410Z,22.95
2019-03-30T06:28:18.055Z,20.30
2019-03-30T06:30:48.758Z,23.83
2019-03-30T06:33:19.379Z,23.12
2019-03-30T06:35:49.987Z,27.13
2019-03-30T06:38:20.634Z,25.48
2019-03-30T06:40:51.227Z,20.40
2019-03-30T06:43:22.016Z,22.70
2019-03-30T06:45:52.755Z,24.67
2019-03-30T06:48:23.392Z,20.27
2019-03-30T06:50:54.058Z,20.43
2019-03-30T06:53:24.815Z,29.12
2019-03-30T06:55:55.547Z,21.15
2019-03-30T06:58:26.170Z,18.65
2019-03-30T07:00:57.143Z,21.90
2019-03-30T07:03:28.113Z,17.92
2019-03-30T07:06:00.686Z,26.37
2019-03-30T07:08:33.416Z,24.95
2019-03-30T07:11:04.291Z,25.60
2019-03-30T07:13:38.969Z,33.08
2019-03-30T07:16:09.816Z,26.75
2019-03-30T07:18:42.896Z,22.25
2019-03-30T07:21:14.566Z,24.87
2019-03-30T07:23:45.186Z,29.72
2019-03-30T07:26:15.814Z,23.70
2019-03-30T07:28:47.250Z,20.72
2019-03-30T07:31:18.297Z,21.07
2019-03-30T07:33:50.129Z,22.82
2019-03-30T07:36:20.656Z,23.42
2019-03-30T07:38:51.499Z,25.90
2019-03-30T07:41:22.159Z,22.65
2019-03-30T07:43:52.904Z,26.75
2019-03-30T07:46:23.636Z,20.23
2019-03-30T07:48:54.278Z,24.43
2019-03-30T07:51:25.244Z,27.37
2019-03-30T07:53:55.846Z,26.87
2019-03-30T07:56:26.436Z,23.77
2019-03-30T07:58:57.436Z,29.92
2019-03-30T08:01:40.916Z,21.68
2019-03-30T08:04:11.553Z,21.10
2019-03-30T08:06:42.257Z,21.02
2019-03-30T08:09:13.057Z,23.62
2019-03-30T08:11:43.602Z,21.97
2019-03-30T08:14:14.209Z,20.88
2019-03-30T08:16:44.791Z,24.18
2019-03-30T08:19:15.499Z,24.65
2019-03-30T08:21:46.161Z,23.45
2019-03-30T08:24:16.704Z,28.57
2019-03-30T08:26:48.408Z,22.50
2019-03-30T08:29:19.076Z,22.60
2019-03-30T08:31:50.158Z,26.57
2019-03-30T08:34:20.957Z,23.90
2019-03-30T08:36:52.604Z,19.77
2019-03-30T08:39:23.156Z,27.27
2019-03-30T08:41:53.791Z,22.17
2019-03-30T08:44:24.410Z,33.30
2019-03-30T08:46:55.173Z,23.70
2019-03-30T08:49:25.903Z,28.25
2019-03-30T08:51:56.579Z,29.92
2019-03-30T08:54:27.135Z,23.42
2019-03-30T08:56:57.864Z,29.10
2019-03-30T08:59:28.545Z,26.33
2019-03-30T09:01:59.197Z,27.07
2019-03-30T09:04:29.777Z,20.80
2019-03-30T09:07:00.432Z,26.73
2019-03-30T09:09:31.156Z,31.23
2019-03-30T09:12:01.827Z,26.27
2019-03-30T09:14:32.654Z,28.27
2019-03-30T09:17:03.495Z,24.35
2019-03-30T09:19:34.215Z,25.82
2019-03-30T09:22:04.961Z,37.03
2019-03-30T09:24:35.701Z,31.95
2019-03-30T09:27:06.436Z,26.87
2019-03-30T09:29:37.111Z,33.28
2019-03-30T09:32:14.136Z,29.50
2019-03-30T09:34:40.871Z,32.08
2019-03-30T09:37:13.779Z,32.58
2019-03-30T09:39:44.482Z,31.68
2019-03-30T09:42:15.216Z,27.55
2019-03-30T09:44:45.796Z,27.30
2019-03-30T09:47:16.346Z,27.52
2019-03-30T09:49:46.955Z,26.97
2019-03-30T09:52:19.154Z,30.80
2019-03-30T09:54:49.776Z,27.07
2019-03-30T09:57:20.356Z,29.67
2019-03-30T09:59:51.001Z,36.85
2019-03-30T10:02:21.645Z,30.43
2019-03-30T10:04:52.410Z,41.65
2019-03-30T10:07:23.137Z,33.28
2019-03-30T10:09:53.977Z,34.58
2019-03-30T10:12:24.654Z,28.62
2019-03-30T10:14:55.220Z,33.95
2019-03-30T10:17:25.943Z,24.02
2019-03-30T10:20:04.246Z,25.27
2019-03-30T10:22:28.977Z,26.60
2019-03-30T10:25:00.553Z,38.25
2019-03-30T10:27:31.209Z,28.27
2019-03-30T10:30:05.980Z,19.57
2019-03-30T10:32:41.897Z,25.00
2019-03-30T10:35:12.699Z,22.00
2019-03-30T10:37:44.316Z,24.35
2019-03-30T10:40:15.119Z,24.98
2019-03-30T10:42:48.104Z,17.60
2019-03-30T10:45:18.904Z,20.62
2019-03-30T10:47:49.794Z,26.00
2019-03-30T10:50:20.575Z,22.22
2019-03-30T10:52:51.363Z,17.15
2019-03-30T10:55:22.237Z,15.65
2019-03-30T10:57:57.058Z,17.32
2019-03-30T11:00:37.902Z,15.15
2019-03-30T11:03:10.385Z,16.15
2019-03-30T11:05:41.058Z,26.95
2019-03-30T11:08:11.895Z,23.18
2019-03-30T11:10:42.546Z,21.73
2019-03-30T11:13:13.192Z,18.85
2019-03-30T11:15:43.896Z,17.80
2019-03-30T11:18:14.632Z,33.40
2019-03-30T11:20:45.437Z,18.95
2019-03-30T11:23:16.083Z,13.95
2019-03-30T11:25:46.626Z,24.02
2019-03-30T11:28:17.391Z,16.70
2019-03-30T11:30:48.032Z,16.77
2019-03-30T11:33:19.895Z,21.10
2019-03-30T11:35:50.492Z,15.50
2019-03-30T11:38:22.055Z,14.85
2019-03-30T11:40:52.603Z,20.50
2019-03-30T11:43:23.457Z,18.05
2019-03-30T11:45:54.234Z,17.77
2019-03-30T11:48:27.059Z,17.57
2019-03-30T11:50:57.910Z,19.37
2019-03-30T11:53:40.160Z,16.85
2019-03-30T11:56:11.035Z,18.10
2019-03-30T11:58:42.756Z,18.65
2019-03-30T12:01:13.755Z,14.87
2019-03-30T12:04:10.075Z,18.80
2019-03-30T12:06:41.241Z,29.60
2019-03-30T12:09:25.876Z,16.90
2019-03-30T12:11:56.545Z,23.07
2019-03-30T12:14:27.180Z,28.35
2019-03-30T12:16:57.760Z,24.05
2019-03-30T12:19:28.531Z,19.27
2019-03-30T12:21:59.107Z,20.15
2019-03-30T12:24:29.779Z,20.88
2019-03-30T12:27:00.454Z,29.32
2019-03-30T12:29:31.633Z,22.02
2019-03-30T12:32:02.262Z,22.10
2019-03-30T12:34:32.878Z,22.45
2019-03-30T12:37:03.596Z,38.35
2019-03-30T12:39:34.192Z,19.45
2019-03-30T12:42:05.199Z,24.15
2019-03-30T12:44:35.867Z,27.77
2019-03-30T12:47:06.658Z,23.67
2019-03-30T12:49:37.331Z,22.55
2019-03-30T12:52:08.079Z,21.48
2019-03-30T12:54:38.687Z,22.80
2019-03-30T12:57:11.095Z,21.48
2019-03-30T12:59:41.725Z,21.95
2019-03-30T13:02:23.328Z,24.55
2019-03-30T13:04:53.980Z,27.37
2019-03-30T13:07:24.574Z,28.52
2019-03-30T13:09:55.333Z,23.87
2019-03-30T13:12:26.180Z,24.85
2019-03-30T13:14:56.787Z,20.35
2019-03-30T13:17:28.500Z,31.25
2019-03-30T13:19:59.079Z,22.25
2019-03-30T13:22:29.649Z,19.62
2019-03-30T13:25:01.360Z,30.62
2019-03-30T13:27:32.136Z,27.02
2019-03-30T13:30:02.799Z,23.60
2019-03-30T13:32:35.057Z,21.30
2019-03-30T13:35:05.866Z,21.35
2019-03-30T13:37:36.713Z,24.77
2019-03-30T13:40:07.867Z,20.50
2019-03-30T13:42:38.665Z,25.37
2019-03-30T13:45:10.620Z,24.30
2019-03-30T13:47:41.251Z,22.37
2019-03-30T13:50:12.007Z,21.50
2019-03-30T13:52:42.780Z,23.40
2019-03-30T13:55:13.874Z,27.52
2019-03-30T13:57:44.594Z,22.85
2019-03-30T14:00:15.428Z,23.27
2019-03-30T14:02:46.154Z,24.67
2019-03-30T14:05:16.890Z,28.62
2019-03-30T14:07:48.077Z,23.05
2019-03-30T14:10:18.837Z,23.27
2019-03-30T14:12:49.671Z,36.95
2019-03-30T14:15:20.487Z,29.85
2019-03-30T14:17:51.208Z,31.55
2019-03-30T14:20:22.274Z,23.87
2019-03-30T14:22:53.015Z,22.48
2019-03-30T14:25:23.775Z,28.20
2019-03-30T14:27:55.528Z,26.82
2019-03-30T14:30:26.359Z,41.08
2019-03-30T14:32:57.093Z,27.77
2019-03-30T14:35:27.883Z,29.00
2019-03-30T14:37:58.731Z,35.08
2019-03-30T14:40:29.220Z,33.83
2019-03-30T14:43:00.034Z,30.85
2019-03-30T14:45:30.888Z,27.05
2019-03-30T14:48:01.885Z,32.30
2019-03-30T14:50:32.827Z,32.67
2019-03-30T14:53:05.212Z,29.75
2019-03-30T14:55:47.334Z,28.02
2019-03-30T14:58:18.091Z,42.15
2019-03-30T15:00:48.856Z,32.98
2019-03-30T15:03:19.680Z,32.85
2019-03-30T15:05:50.446Z,31.42
2019-03-30T15:08:21.081Z,35.65
2019-03-30T15:10:51.727Z,34.65
2019-03-30T15:13:22.539Z,40.03
2019-03-30T15:15:53.521Z,31.93
2019-03-30T15:18:24.119Z,27.58
2019-03-30T15:20:54.851Z,35.80
2019-03-30T15:23:27.155Z,38.10
2019-03-30T15:25:58.013Z,32.85
2019-03-30T15:28:28.670Z,36.08
2019-03-30T15:30:59.337Z,32.85
2019-03-30T15:33:30.251Z,36.28
2019-03-30T15:36:00.994Z,34.33
2019-03-30T15:38:31.712Z,39.75
2019-03-30T15:41:02.825Z,44.55
2019-03-30T15:43:38.442Z,39.75
2019-03-30T15:46:05.992Z,47.67
2019-03-30T15:48:36.762Z,40.35
2019-03-30T15:51:07.496Z,44.35
2019-03-30T15:53:38.305Z,42.93
2019-03-30T15:56:09.127Z,52.88
2019-03-30T15:58:39.927Z,47.17
2019-03-30T16:01:10.589Z,47.23
2019-03-30T16:03:41.255Z,44.05
2019-03-30T16:06:11.885Z,49.00
2019-03-30T16:08:42.611Z,51.25
2019-03-30T16:11:13.258Z,60.50
2019-03-30T16:13:43.942Z,54.20
2019-03-30T16:16:14.645Z,62.25
2019-03-30T16:18:45.308Z,53.42
2019-03-30T16:21:16.083Z,64.42
2019-03-30T16:23:46.885Z,70.10
2019-03-30T16:26:17.715Z,61.18
2019-03-30T16:28:48.403Z,70.00
2019-03-30T16:31:30.643Z,61.30
2019-03-30T16:34:01.512Z,59.88
2019-03-30T16:36:34.055Z,62.73
2019-03-30T16:39:05.955Z,66.50
2019-03-30T16:41:36.935Z,75.35
2019-03-30T16:44:07.687Z,80.67
2019-03-30T16:46:38.725Z,89.65
2019-03-30T16:49:10.568Z,78.67
2019-03-30T16:51:41.168Z,72.90
2019-03-30T16:54:12.316Z,74.25
2019-03-30T16:56:43.068Z,67.17
2019-03-30T16:59:16.873Z,67.30
2019-03-30T17:01:47.543Z,90.50
2019-03-30T17:04:18.107Z,92.30
2019-03-30T17:06:49.069Z,83.55
2019-03-30T17:09:20.781Z,81.87
2019-03-30T17:11:51.759Z,141.47
2019-03-30T17:14:22.685Z,129.38
2019-03-30T17:16:53.343Z,137.43
2019-03-30T17:19:24.068Z,122.98
2019-03-30T17:21:54.751Z,104.38
2019-03-30T17:24:25.508Z,98.70
2019-03-30T17:26:56.267Z,96.05
2019-03-30T17:29:26.900Z,117.65
2019-03-30T17:31:57.463Z,102.72
2019-03-30T17:34:28.979Z,100.97
2019-03-30T17:37:00.399Z,100.80
2019-03-30T17:39:32.561Z,94.28
2019-03-30T17:42:04.545Z,88.62
2019-03-30T17:44:37.645Z,90.45
2019-03-30T17:47:13.303Z,77.80
2019-03-30T17:49:45.289Z,81.78
2019-03-30T17:52:16.643Z,99.60
2019-03-30T17:54:51.675Z,110.30
2019-03-30T17:57:24.883Z,97.85
2019-03-30T17:59:56.400Z,99.13
2019-03-30T18:02:32.261Z,102.42
2019-03-30T18:05:05.728Z,105.15
2019-03-30T18:07:49.327Z,114.55
2019-03-30T18:10:30.209Z,112.03
2019-03-30T18:13:14.815Z,105.00
2019-03-30T18:16:10.491Z,118.17
2019-03-30T18:18:43.122Z,115.05
2019-03-30T18:21:21.782Z,135.07
2019-03-30T18:24:00.088Z,118.97
2019-03-30T18:26:40.316Z,150.72
2019-03-30T18:29:13.639Z,102.25
2019-03-30T18:31:45.844Z,114.90
2019-03-30T18:34:17.573Z,122.10
2019-03-30T18:36:53.557Z,99.85
2019-03-30T18:39:25.642Z,99.90
2019-03-30T18:41:56.611Z,102.53
2019-03-30T18:44:27.447Z,96.80
2019-03-30T18:46:58.623Z,104.25
2019-03-30T18:49:29.405Z,114.65
2019-03-30T18:52:01.303Z,98.00
2019-03-30T18:54:32.155Z,99.30
2019-03-30T18:57:02.996Z,106.40
2019-03-30T18:59:33.669Z,108.03
2019-03-30T19:02:04.384Z,109.30
2019-03-30T19:04:35.096Z,112.77
2019-03-30T19:07:05.864Z,109.60
2019-03-30T19:09:36.668Z,101.87
2019-03-30T19:12:07.297Z,104.65
2019-03-30T19:14:38.004Z,121.37
2019-03-30T19:17:08.731Z,127.05
2019-03-30T19:19:39.528Z,124.47
2019-03-30T19:22:11.494Z,135.72
2019-03-30T19:24:42.276Z,111.47
2019-03-30T19:27:13.100Z,120.42
2019-03-30T19:29:44.162Z,117.10
2019-03-30T19:32:14.875Z,115.95
2019-03-30T19:34:45.715Z,120.05
2019-03-30T19:37:16.884Z,134.65
2019-03-30T19:39:47.787Z,137.12
2019-03-30T19:42:18.615Z,156.85
2019-03-30T19:44:49.667Z,148.82
2019-03-30T19:47:20.669Z,161.50
2019-03-30T19:49:51.682Z,143.80
2019-03-30T19:52:22.688Z,124.27
2019-03-30T19:54:53.406Z,120.77
2019-03-30T19:57:27.474Z,124.87
2019-03-30T19:59:56.798Z,125.53
2019-03-30T20:02:28.909Z,136.30
2019-03-30T20:04:59.875Z,130.03
2019-03-30T20:07:30.759Z,147.65
2019-03-30T20:10:01.556Z,141.75
2019-03-30T20:12:32.398Z,142.62
2019-03-30T20:15:04.864Z,124.72
2019-03-30T20:17:35.696Z,131.50
2019-03-30T20:20:07.075Z,118.28
2019-03-30T20:22:38.087Z,142.20
2019-03-30T20:25:09.159Z,132.50
2019-03-30T20:27:39.947Z,142.25
2019-03-30T20:30:12.683Z,161.07
2019-03-30T20:32:44.911Z,140.55
2019-03-30T20:35:16.935Z,136.57
2019-03-30T20:37:48.811Z,148.38
2019-03-30T20:40:19.616Z,138.45
2019-03-30T20:43:22.649Z,141.97
2019-03-30T20:45:56.804Z,133.27
2019-03-30T20:48:27.603Z,132.45
2019-03-30T20:50:58.660Z,126.22
2019-03-30T20:53:29.766Z,128.93
2019-03-30T20:56:00.578Z,134.65
2019-03-30T20:58:31.361Z,118.35
2019-03-30T21:01:02.286Z,122.50
2019-03-30T21:03:33.242Z,124.18
2019-03-30T21:06:04.532Z,115.77
2019-03-30T21:08:35.926Z,116.10
2019-03-30T21:11:08.322Z,132.52
2019-03-30T21:13:40.540Z,114.67
2019-03-30T21:16:12.383Z,122.13
2019-03-30T21:18:46.492Z,127.70
2019-03-30T21:21:24.814Z,138.80
2019-03-30T21:23:57.086Z,118.60
2019-03-30T21:26:33.660Z,123.62
2019-03-30T21:29:13.780Z,131.07
2019-03-30T21:31:53.286Z,146.68
2019-03-30T21:34:32.953Z,135.95
2019-03-30T21:37:11.693Z,116.23
2019-03-30T21:39:55.453Z,115.60
2019-03-30T21:42:34.863Z,137.52
2019-03-30T21:45:21.164Z,145.43
2019-03-30T21:47:59.693Z,131.37
2019-03-30T21:50:38.983Z,127.78
2019-03-30T21:53:16.720Z,130.67
2019-03-30T21:55:48.893Z,149.45
2019-03-30T21:58:23.441Z,129.55
2019-03-30T22:00:54.278Z,130.15
2019-03-30T22:03:25.195Z,139.43
2019-03-30T22:05:56.114Z,116.60
2019-03-30T22:08:26.852Z,127.02
2019-03-30T22:10:59.520Z,120.37
2019-03-30T22:13:32.877Z,118.93
2019-03-30T22:16:03.628Z,122.62
2019-03-30T22:18:35.060Z,129.78
2019-03-30T22:21:05.819Z,135.12
2019-03-30T22:23:36.523Z,130.55
2019-03-30T22:26:07.408Z,132.30
2019-03-30T22:28:38.207Z,122.65
2019-03-30T22:31:08.896Z,129.50
2019-03-30T22:33:39.579Z,120.97
2019-03-30T22:36:10.367Z,123.02
2019-03-30T22:38:41.185Z,130.10
2019-03-30T22:41:12.102Z,132.18
2019-03-30T22:43:42.777Z,131.43
2019-03-30T22:46:13.336Z,124.80
2019-03-30T22:48:45.217Z,127.90
2019-03-30T22:51:15.831Z,115.93
2019-03-30T22:53:46.559Z,111.60
2019-03-30T22:56:17.187Z,114.80
2019-03-30T22:58:47.940Z,115.25
2019-03-30T23:01:20.078Z,107.63
2019-03-30T23:03:54.738Z,127.55
2019-03-30T23:06:25.394Z,100.25
2019-03-30T23:08:56.255Z,111.67
2019-03-30T23:11:45.746Z,104.92
2019-03-30T23:14:16.781Z,103.72
2019-03-30T23:16:47.418Z,96.25
2019-03-30T23:19:18.119Z,101.70
2019-03-30T23:21:48.819Z,111.47
2019-03-30T23:24:19.841Z,108.07
2019-03-30T23:26:50.533Z,108.57
2019-03-30T23:29:21.254Z,105.03
2019-03-30T23:31:51.995Z,106.23
2019-03-30T23:34:22.747Z,108.42
2019-03-30T23:36:53.610Z,109.78
2019-03-30T23:39:24.308Z,106.85
2019-03-30T23:41:55.035Z,112.83
2019-03-30T23:44:25.669Z,106.75
2019-03-30T23:46:56.203Z,113.42
2019-03-30T23:49:26.719Z,127.97
2019-03-30T23:51:57.262Z,125.92
2019-03-30T23:54:27.995Z,125.42
2019-03-30T23:56:58.702Z,124.70
2019-03-30T23:59:29.455Z,127.10
